createdAt,value
2023-09-27T00:00:49.510Z,993.854
2023-09-27T00:02:49.524Z,993.825
2023-09-27T00:04:49.868Z,993.925
2023-09-27T00:06:49.883Z,993.956
2023-09-27T00:08:50.276Z,993.879
2023-09-27T00:10:49.487Z,993.901
2023-09-27T00:12:49.524Z,993.896
2023-09-27T00:14:49.541Z,993.885
2023-09-27T00:16:49.796Z,993.888
2023-09-27T00:18:50.016Z,993.860
2023-09-27T00:20:50.127Z,993.867
2023-09-27T00:22:50.147Z,993.858
2023-09-27T00:24:50.355Z,993.767
2023-09-27T00:26:49.490Z,993.767
2023-09-27T00:28:49.590Z,993.708
2023-09-27T00:30:49.669Z,993.697
2023-09-27T00:32:49.878Z,993.639
2023-09-27T00:34:50.146Z,993.770
2023-09-27T00:36:49.350Z,993.680
2023-09-27T00:38:49.617Z,993.682
2023-09-27T00:40:49.788Z,993.664
2023-09-27T00:42:49.948Z,993.652
2023-09-27T00:44:49.986Z,993.631
2023-09-27T00:46:50.079Z,993.630
2023-09-27T00:48:50.171Z,993.717
2023-09-27T00:50:50.162Z,993.658
2023-09-27T00:52:50.337Z,993.710
2023-09-27T00:54:49.582Z,993.722
2023-09-27T00:56:49.722Z,993.552
2023-09-27T00:58:49.967Z,993.651
2023-09-27T01:00:50.120Z,993.649
2023-09-27T01:02:49.492Z,993.569
2023-09-27T01:04:49.799Z,993.524
2023-09-27T01:06:50.129Z,993.574
2023-09-27T01:08:49.427Z,993.495
2023-09-27T01:10:49.690Z,993.579
2023-09-27T01:12:50.163Z,993.563
2023-09-27T01:14:49.498Z,993.586
2023-09-27T01:16:49.668Z,993.585
2023-09-27T01:18:49.745Z,993.690
2023-09-27T01:20:49.894Z,993.668
2023-09-27T01:22:49.971Z,993.664
2023-09-27T01:24:50.277Z,993.731
2023-09-27T01:26:50.272Z,993.786
2023-09-27T01:28:49.356Z,993.854
2023-09-27T01:30:49.437Z,993.785
2023-09-27T01:32:49.845Z,993.853
2023-09-27T01:34:50.254Z,993.824
2023-09-27T01:36:50.372Z,993.832
2023-09-27T01:38:49.591Z,993.847
2023-09-27T01:40:49.680Z,993.845
2023-09-27T01:42:49.826Z,993.911
2023-09-27T01:44:50.070Z,993.731
2023-09-27T01:46:50.349Z,993.724
2023-09-27T01:48:49.551Z,993.793
2023-09-27T01:50:49.591Z,993.767
2023-09-27T01:52:49.683Z,993.669
2023-09-27T01:54:49.944Z,993.763
2023-09-27T01:56:49.938Z,993.731
2023-09-27T01:58:50.015Z,993.731
2023-09-27T02:00:50.097Z,993.845
2023-09-27T02:02:50.249Z,993.849
2023-09-27T02:04:49.480Z,994.027
2023-09-27T02:06:49.531Z,993.874
2023-09-27T02:08:49.779Z,993.852
2023-09-27T02:10:49.860Z,993.898
2023-09-27T02:12:50.092Z,993.865
2023-09-27T02:14:50.221Z,993.827
2023-09-27T02:16:50.293Z,993.909
2023-09-27T02:18:49.360Z,993.873
2023-09-27T02:20:49.527Z,993.891
2023-09-27T02:22:49.714Z,994.000
2023-09-27T02:24:49.641Z,993.971
2023-09-27T02:26:49.610Z,993.931
2023-09-27T02:28:49.743Z,993.885
2023-09-27T02:30:49.942Z,993.782
2023-09-27T02:32:50.031Z,993.913
2023-09-27T02:34:50.232Z,993.861
2023-09-27T02:36:50.337Z,993.811
2023-09-27T02:38:49.426Z,993.798
2023-09-27T02:40:49.589Z,993.864
2023-09-27T02:42:49.763Z,993.845
2023-09-27T02:44:49.924Z,993.925
2023-09-27T02:46:50.026Z,993.824
2023-09-27T02:48:50.186Z,993.888
2023-09-27T02:50:50.355Z,993.931
2023-09-27T02:52:49.536Z,993.963
2023-09-27T02:54:49.663Z,993.875
2023-09-27T02:56:49.769Z,993.927
2023-09-27T02:58:50.182Z,993.916
2023-09-27T03:00:49.365Z,993.938
2023-09-27T03:02:49.684Z,993.891
2023-09-27T03:04:50.132Z,993.900
2023-09-27T03:06:50.409Z,993.979
2023-09-27T03:08:49.698Z,993.925
2023-09-27T03:10:49.819Z,993.961
2023-09-27T03:12:49.959Z,993.914
2023-09-27T03:14:50.225Z,993.898
2023-09-27T03:16:50.283Z,993.898
2023-09-27T03:18:49.361Z,994.105
2023-09-27T03:20:50.295Z,994.144
2023-09-27T03:22:49.417Z,994.095
2023-09-27T03:24:49.639Z,994.034
2023-09-27T03:26:49.764Z,993.984
2023-09-27T03:28:49.835Z,994.005
2023-09-27T03:30:49.921Z,994.049
2023-09-27T03:32:50.204Z,994.004
2023-09-27T03:34:50.278Z,994.004
2023-09-27T03:36:49.378Z,993.788
2023-09-27T03:38:49.456Z,993.933
2023-09-27T03:40:49.525Z,993.985
2023-09-27T03:42:49.599Z,993.917
2023-09-27T03:44:49.792Z,993.796
2023-09-27T03:46:49.923Z,993.687
2023-09-27T03:48:50.125Z,993.774
2023-09-27T03:50:50.311Z,993.785
2023-09-27T03:52:49.388Z,993.833
2023-09-27T03:54:49.472Z,993.780
2023-09-27T03:56:49.621Z,993.687
2023-09-27T03:58:49.697Z,993.785
2023-09-27T04:00:49.748Z,993.757
2023-09-27T04:02:49.997Z,993.787
2023-09-27T04:04:49.373Z,993.847
2023-09-27T04:06:49.541Z,993.767
2023-09-27T04:08:49.658Z,993.633
2023-09-27T04:10:49.715Z,993.613
2023-09-27T04:12:49.817Z,993.561
2023-09-27T04:14:50.053Z,993.562
2023-09-27T04:16:50.138Z,993.517
2023-09-27T04:18:50.204Z,993.588
2023-09-27T04:20:49.380Z,993.537
2023-09-27T04:22:49.634Z,993.593
2023-09-27T04:24:49.814Z,993.521
2023-09-27T04:26:50.076Z,993.510
2023-09-27T04:28:50.249Z,993.630
2023-09-27T04:30:49.446Z,993.660
2023-09-27T04:32:49.721Z,993.587
2023-09-27T04:34:49.979Z,993.525
2023-09-27T04:36:50.170Z,993.515
2023-09-27T04:38:50.265Z,993.633
2023-09-27T04:40:49.436Z,993.633
2023-09-27T04:42:49.646Z,993.737
2023-09-27T04:44:49.750Z,993.671
2023-09-27T04:46:49.949Z,993.694
2023-09-27T04:48:50.044Z,993.740
2023-09-27T04:50:50.209Z,993.731
2023-09-27T04:52:50.366Z,993.827
2023-09-27T04:54:49.548Z,993.867
2023-09-27T04:56:49.527Z,993.867
2023-09-27T04:58:49.575Z,993.816
2023-09-27T05:00:49.635Z,993.939
2023-09-27T05:02:50.008Z,993.969
2023-09-27T05:04:49.394Z,993.965
2023-09-27T05:06:49.638Z,994.035
2023-09-27T05:08:49.821Z,994.034
2023-09-27T05:10:50.025Z,994.008
2023-09-27T05:12:50.303Z,994.003
2023-09-27T05:14:49.560Z,994.108
2023-09-27T05:16:49.861Z,994.131
2023-09-27T05:18:50.207Z,994.181
2023-09-27T05:20:50.214Z,994.236
2023-09-27T05:22:49.385Z,994.229
2023-09-27T05:24:49.623Z,994.261
2023-09-27T05:26:49.709Z,994.256
2023-09-27T05:28:49.882Z,994.301
2023-09-27T05:30:50.138Z,994.233
2023-09-27T05:32:49.498Z,994.301
2023-09-27T05:34:49.694Z,994.303
2023-09-27T05:36:49.871Z,994.410
2023-09-27T05:38:50.114Z,994.494
2023-09-27T05:40:50.289Z,994.511
2023-09-27T05:42:49.577Z,994.627
2023-09-27T05:44:49.929Z,994.595
2023-09-27T05:46:50.221Z,994.515
2023-09-27T05:48:49.369Z,994.612
2023-09-27T05:50:49.581Z,994.586
2023-09-27T05:52:49.759Z,994.577
2023-09-27T05:54:49.862Z,994.676
2023-09-27T05:56:50.006Z,994.698
2023-09-27T05:58:50.280Z,994.687
2023-09-27T06:00:49.597Z,994.774
2023-09-27T06:02:49.789Z,994.841
2023-09-27T06:04:50.005Z,994.927
2023-09-27T06:06:50.119Z,994.866
2023-09-27T06:08:49.375Z,994.835
2023-09-27T06:10:49.589Z,994.896
2023-09-27T06:12:49.684Z,994.922
2023-09-27T06:14:49.642Z,994.959
2023-09-27T06:16:49.902Z,994.980
2023-09-27T06:18:50.053Z,994.915
2023-09-27T06:20:50.124Z,994.973
2023-09-27T06:22:50.222Z,994.973
2023-09-27T06:24:50.192Z,995.134
2023-09-27T06:26:50.287Z,995.134
2023-09-27T06:28:50.438Z,995.049
2023-09-27T06:30:50.018Z,995.233
2023-09-27T06:32:50.151Z,995.161
2023-09-27T06:34:50.303Z,995.198
2023-09-27T06:36:49.484Z,995.132
2023-09-27T06:38:49.735Z,995.132
2023-09-27T06:40:49.858Z,995.137
2023-09-27T06:42:50.070Z,995.168
2023-09-27T06:44:50.175Z,995.280
2023-09-27T06:46:49.660Z,995.196
2023-09-27T06:48:50.069Z,995.179
2023-09-27T06:50:49.560Z,995.069
2023-09-27T06:52:49.656Z,995.069
2023-09-27T06:54:49.901Z,995.008
2023-09-27T06:56:50.030Z,995.073
2023-09-27T06:58:50.243Z,994.994
2023-09-27T07:00:49.397Z,995.024
2023-09-27T07:02:49.863Z,995.058
2023-09-27T07:04:50.164Z,995.124
2023-09-27T07:06:49.380Z,994.965
2023-09-27T07:08:49.653Z,995.017
2023-09-27T07:10:49.938Z,995.017
2023-09-27T07:12:50.229Z,994.993
2023-09-27T07:14:49.506Z,995.102
2023-09-27T07:17:00.456Z,995.076
2023-09-27T07:18:50.209Z,995.166
2023-09-27T07:20:49.493Z,995.134
2023-09-27T07:22:49.738Z,995.302
2023-09-27T07:24:49.977Z,995.283
2023-09-27T07:26:50.170Z,995.303
2023-09-27T07:28:50.568Z,995.291
2023-09-27T07:30:49.784Z,995.289
2023-09-27T07:32:50.035Z,995.218
2023-09-27T07:34:49.429Z,995.348
2023-09-27T07:36:49.516Z,995.289
2023-09-27T07:38:49.692Z,995.260
2023-09-27T07:40:49.784Z,995.256
2023-09-27T07:42:49.933Z,995.279
2023-09-27T07:44:50.012Z,995.328
2023-09-27T07:46:50.062Z,995.224
2023-09-27T07:48:49.410Z,995.173
2023-09-27T07:50:49.543Z,995.112
2023-09-27T07:52:49.786Z,995.046
2023-09-27T07:54:49.988Z,995.089
2023-09-27T07:56:50.249Z,995.076
2023-09-27T07:58:49.478Z,995.096
2023-09-27T08:00:49.572Z,995.160
2023-09-27T08:02:49.843Z,995.119
2023-09-27T08:04:50.106Z,995.122
2023-09-27T08:06:50.186Z,995.119
2023-09-27T08:08:50.296Z,995.075
2023-09-27T08:10:49.362Z,995.244
2023-09-27T08:12:49.606Z,995.143
2023-09-27T08:14:49.886Z,995.066
2023-09-27T08:16:50.529Z,995.156
2023-09-27T08:18:50.089Z,995.130
2023-09-27T08:20:49.494Z,995.119
2023-09-27T08:22:49.745Z,995.087
2023-09-27T08:24:49.806Z,995.067
2023-09-27T08:26:49.897Z,995.118
2023-09-27T08:28:49.964Z,995.118
2023-09-27T08:30:50.092Z,995.005
2023-09-27T08:32:50.316Z,995.041
2023-09-27T08:34:49.634Z,995.163
2023-09-27T08:36:49.927Z,995.202
2023-09-27T08:38:50.083Z,995.153
2023-09-27T08:40:50.235Z,995.162
2023-09-27T08:42:49.366Z,995.136
2023-09-27T08:44:49.490Z,995.099
2023-09-27T08:46:49.684Z,995.035
2023-09-27T08:48:49.807Z,995.078
2023-09-27T08:50:49.914Z,994.944
2023-09-27T08:52:50.060Z,995.044
2023-09-27T08:54:50.206Z,995.086
2023-09-27T08:56:50.293Z,995.116
2023-09-27T08:58:49.404Z,995.111
2023-09-27T09:00:49.548Z,995.024
2023-09-27T09:02:50.147Z,994.999
2023-09-27T09:04:49.351Z,994.907
2023-09-27T09:06:49.481Z,995.019
2023-09-27T09:08:49.637Z,994.917
2023-09-27T09:10:49.640Z,994.917
2023-09-27T09:12:49.884Z,995.012
2023-09-27T09:14:49.891Z,994.941
2023-09-27T09:16:50.202Z,995.016
2023-09-27T09:18:49.435Z,995.009
2023-09-27T09:20:49.620Z,995.016
2023-09-27T09:22:49.758Z,995.006
2023-09-27T09:24:49.891Z,995.015
2023-09-27T09:26:49.989Z,994.941
2023-09-27T09:28:52.524Z,994.987
2023-09-27T09:30:50.058Z,994.948
2023-09-27T09:32:50.407Z,994.922
2023-09-27T09:34:49.848Z,994.885
2023-09-27T09:36:52.594Z,994.881
2023-09-27T09:38:50.337Z,994.975
2023-09-27T09:40:49.565Z,994.947
2023-09-27T09:42:49.898Z,994.996
2023-09-27T09:44:50.102Z,994.930
2023-09-27T09:46:49.370Z,994.909
2023-09-27T09:48:50.325Z,994.953
2023-09-27T09:50:49.605Z,994.870
2023-09-27T09:52:49.805Z,994.866
2023-09-27T09:54:57.056Z,994.842
2023-09-27T09:56:59.359Z,994.891
2023-09-27T09:58:50.325Z,994.781
2023-09-27T10:00:49.402Z,994.853
2023-09-27T10:02:49.482Z,994.784
2023-09-27T10:04:49.948Z,994.736
2023-09-27T10:06:50.218Z,994.697
2023-09-27T10:08:49.427Z,994.668
2023-09-27T10:10:49.638Z,994.644
2023-09-27T10:12:49.706Z,994.677
2023-09-27T10:14:49.972Z,994.661
2023-09-27T10:16:50.037Z,994.604
2023-09-27T10:18:50.203Z,994.553
2023-09-27T10:20:49.531Z,994.529
2023-09-27T10:22:49.742Z,994.516
2023-09-27T10:24:49.869Z,994.484
2023-09-27T10:26:50.191Z,994.427
2023-09-27T10:28:50.321Z,994.445
2023-09-27T10:30:49.561Z,994.417
2023-09-27T10:32:50.705Z,994.410
2023-09-27T10:34:50.146Z,994.419
2023-09-27T10:36:59.666Z,994.388
2023-09-27T10:38:49.427Z,994.346
2023-09-27T10:40:49.522Z,994.322
2023-09-27T10:42:49.536Z,994.230
2023-09-27T10:44:49.705Z,994.293
2023-09-27T10:46:49.857Z,994.282
2023-09-27T10:48:50.031Z,994.180
2023-09-27T10:50:50.222Z,994.213
2023-09-27T10:52:49.485Z,994.232
2023-09-27T10:54:49.737Z,994.232
2023-09-27T10:56:49.877Z,994.189
2023-09-27T10:58:50.313Z,994.176
2023-09-27T11:00:50.309Z,994.097
2023-09-27T11:02:49.510Z,994.130
2023-09-27T11:04:49.862Z,994.129
2023-09-27T11:06:49.987Z,993.973
2023-09-27T11:08:50.186Z,993.998
2023-09-27T11:10:49.756Z,993.945
2023-09-27T11:12:49.948Z,993.973
2023-09-27T11:14:50.213Z,993.885
2023-09-27T11:16:50.284Z,993.856
2023-09-27T11:18:49.605Z,993.850
2023-09-27T11:20:50.116Z,993.792
2023-09-27T11:22:49.586Z,993.676
2023-09-27T11:24:49.812Z,993.687
2023-09-27T11:26:49.766Z,993.672
2023-09-27T11:28:49.959Z,993.732
2023-09-27T11:30:50.177Z,993.721
2023-09-27T11:32:49.543Z,993.652
2023-09-27T11:34:49.740Z,993.759
2023-09-27T11:36:49.943Z,993.708
2023-09-27T11:38:50.252Z,993.707
2023-09-27T11:40:49.495Z,993.619
2023-09-27T11:42:49.719Z,993.625
2023-09-27T11:44:49.854Z,993.572
2023-09-27T11:46:51.030Z,993.480
2023-09-27T11:48:50.241Z,993.346
2023-09-27T11:50:50.434Z,993.377
2023-09-27T11:52:49.529Z,993.285
2023-09-27T11:54:49.767Z,993.285
2023-09-27T11:56:50.198Z,993.221
2023-09-27T11:58:49.467Z,993.123
2023-09-27T12:00:49.535Z,993.048
2023-09-27T12:02:57.182Z,992.980
2023-09-27T12:04:49.874Z,992.985
2023-09-27T12:06:50.334Z,992.966
2023-09-27T12:08:49.473Z,993.036
2023-09-27T12:10:49.549Z,992.980
2023-09-27T12:12:49.667Z,993.028
2023-09-27T12:14:49.813Z,993.058
2023-09-27T12:16:50.065Z,993.035
2023-09-27T12:18:49.468Z,993.060
2023-09-27T12:20:51.416Z,993.137
2023-09-27T12:22:49.609Z,993.157
2023-09-27T12:24:49.816Z,993.147
2023-09-27T12:26:49.877Z,993.117
2023-09-27T12:28:50.227Z,993.175
2023-09-27T12:30:49.487Z,993.129
2023-09-27T12:32:49.772Z,993.105
2023-09-27T12:34:50.221Z,993.153
2023-09-27T12:36:49.470Z,993.104
2023-09-27T12:38:49.676Z,993.074
2023-09-27T12:40:49.751Z,993.069
2023-09-27T12:42:49.878Z,993.125
2023-09-27T12:44:50.063Z,993.045
2023-09-27T12:46:50.324Z,993.122
2023-09-27T12:48:49.510Z,993.058
2023-09-27T12:50:49.820Z,992.978
2023-09-27T12:52:50.206Z,993.124
2023-09-27T12:54:49.355Z,993.023
2023-09-27T12:56:49.472Z,993.114
2023-09-27T12:58:49.641Z,993.069
2023-09-27T13:00:49.948Z,993.023
2023-09-27T13:02:50.316Z,993.021
2023-09-27T13:04:49.557Z,992.947
2023-09-27T13:06:49.742Z,992.952
2023-09-27T13:08:50.129Z,992.910
2023-09-27T13:10:49.359Z,992.956
2023-09-27T13:12:49.485Z,992.978
2023-09-27T13:14:49.619Z,992.970
2023-09-27T13:16:49.823Z,993.016
2023-09-27T13:18:51.580Z,992.951
2023-09-27T13:20:49.968Z,992.905
2023-09-27T13:22:50.049Z,992.880
2023-09-27T13:24:50.134Z,992.914
2023-09-27T13:26:49.400Z,992.866
2023-09-27T13:28:49.517Z,992.799
2023-09-27T13:30:49.830Z,992.778
2023-09-27T13:32:50.048Z,992.730
2023-09-27T13:34:49.507Z,992.721
2023-09-27T13:36:49.729Z,992.744
2023-09-27T13:38:50.045Z,992.689
2023-09-27T13:40:50.321Z,992.657
2023-09-27T13:42:49.502Z,992.625
2023-09-27T13:44:49.706Z,992.698
2023-09-27T13:46:49.909Z,992.733
2023-09-27T13:48:49.412Z,992.628
2023-09-27T13:50:49.612Z,992.632
2023-09-27T13:52:49.781Z,992.559
2023-09-27T13:54:50.035Z,992.536
2023-09-27T13:56:49.394Z,992.594
2023-09-27T13:58:49.527Z,992.440
2023-09-27T14:00:50.051Z,992.440
2023-09-27T14:02:50.378Z,992.414
2023-09-27T14:04:49.649Z,992.330
2023-09-27T14:06:49.740Z,992.312
2023-09-27T14:08:49.900Z,992.312
2023-09-27T14:10:50.229Z,992.254
2023-09-27T14:12:50.349Z,992.187
2023-09-27T14:14:49.749Z,992.177
2023-09-27T14:16:49.974Z,992.251
2023-09-27T14:18:50.336Z,992.252
2023-09-27T14:20:49.519Z,992.247
2023-09-27T14:22:49.769Z,992.232
2023-09-27T14:24:49.770Z,992.216
2023-09-27T14:26:49.885Z,992.233
2023-09-27T14:28:50.086Z,992.145
2023-09-27T14:30:50.225Z,992.136
2023-09-27T14:32:49.467Z,992.141
2023-09-27T14:34:57.839Z,992.171
2023-09-27T14:36:49.917Z,992.136
2023-09-27T14:38:49.865Z,992.081
2023-09-27T14:40:50.166Z,992.065
2023-09-27T14:42:50.306Z,992.107
2023-09-27T14:44:49.422Z,992.104
2023-09-27T14:46:49.576Z,992.136
2023-09-27T14:48:49.732Z,992.143
2023-09-27T14:50:49.808Z,992.097
2023-09-27T14:52:50.014Z,992.074
2023-09-27T14:54:50.304Z,992.166
2023-09-27T14:56:49.397Z,992.166
2023-09-27T14:58:49.894Z,992.082
2023-09-27T15:00:50.356Z,992.030
2023-09-27T15:02:49.494Z,991.981
2023-09-27T15:04:49.865Z,992.025
2023-09-27T15:06:50.267Z,991.967
2023-09-27T15:08:51.665Z,991.931
2023-09-27T15:10:50.119Z,991.951
2023-09-27T15:12:49.577Z,991.844
2023-09-27T15:14:49.813Z,991.943
2023-09-27T15:16:49.924Z,991.865
2023-09-27T15:18:50.132Z,991.862
2023-09-27T15:20:49.424Z,991.822
2023-09-27T15:22:49.681Z,991.819
2023-09-27T15:24:49.998Z,991.857
2023-09-27T15:26:50.221Z,991.899
2023-09-27T15:28:50.196Z,991.845
2023-09-27T15:30:49.347Z,991.789
2023-09-27T15:32:49.460Z,991.865
2023-09-27T15:34:49.764Z,991.790
2023-09-27T15:36:49.911Z,991.813
2023-09-27T15:38:50.176Z,991.756
2023-09-27T15:40:49.550Z,991.761
2023-09-27T15:42:49.930Z,991.772
2023-09-27T15:44:50.017Z,991.713
2023-09-27T15:46:50.107Z,991.699
2023-09-27T15:48:50.235Z,991.677
2023-09-27T15:50:49.469Z,991.586
2023-09-27T15:52:49.553Z,991.595
2023-09-27T15:54:49.689Z,991.606
2023-09-27T15:56:49.742Z,991.642
2023-09-27T15:58:49.923Z,991.576
2023-09-27T16:00:50.182Z,991.504
2023-09-27T16:02:50.267Z,991.499
2023-09-27T16:04:52.804Z,991.501
2023-09-27T16:06:50.179Z,991.556
2023-09-27T16:08:49.448Z,991.474
2023-09-27T16:10:54.964Z,991.469
2023-09-27T16:12:49.650Z,991.433
2023-09-27T16:14:49.724Z,991.458
2023-09-27T16:16:49.874Z,991.337
2023-09-27T16:18:50.089Z,991.355
2023-09-27T16:20:50.263Z,991.297
2023-09-27T16:22:49.669Z,991.311
2023-09-27T16:24:49.755Z,991.244
2023-09-27T16:26:50.068Z,991.257
2023-09-27T16:28:50.346Z,991.254
2023-09-27T16:30:49.860Z,991.244
2023-09-27T16:32:50.025Z,991.194
2023-09-27T16:34:49.535Z,991.150
2023-09-27T16:36:49.634Z,991.174
2023-09-27T16:38:49.695Z,991.174
2023-09-27T16:40:49.927Z,991.111
2023-09-27T16:42:50.044Z,991.086
2023-09-27T16:44:50.170Z,991.117
2023-09-27T16:46:50.348Z,991.125
2023-09-27T16:48:49.569Z,991.094
2023-09-27T16:50:49.651Z,991.102
2023-09-27T16:52:50.110Z,991.075
2023-09-27T16:54:50.248Z,991.065
2023-09-27T16:56:49.425Z,991.055
2023-09-27T16:58:49.577Z,991.044
2023-09-27T17:00:49.755Z,991.043
2023-09-27T17:02:49.962Z,991.037
2023-09-27T17:04:50.221Z,991.083
2023-09-27T17:06:50.271Z,991.065
2023-09-27T17:08:49.479Z,991.091
2023-09-27T17:10:49.869Z,991.021
2023-09-27T17:12:49.941Z,991.052
2023-09-27T17:14:50.063Z,990.974
2023-09-27T17:16:50.258Z,990.977
2023-09-27T17:18:49.522Z,991.002
2023-09-27T17:20:49.663Z,991.039
2023-09-27T17:22:49.698Z,990.982
2023-09-27T17:24:51.923Z,991.004
2023-09-27T17:26:50.208Z,991.042
2023-09-27T17:28:50.299Z,991.054
2023-09-27T17:30:49.425Z,990.932
2023-09-27T17:32:49.658Z,990.955
2023-09-27T17:34:49.998Z,990.991
2023-09-27T17:36:50.089Z,990.986
2023-09-27T17:38:50.316Z,990.956
2023-09-27T17:40:49.438Z,990.914
2023-09-27T17:42:49.566Z,990.863
2023-09-27T17:44:49.727Z,990.915
2023-09-27T17:46:49.839Z,990.863
2023-09-27T17:48:50.046Z,990.955
2023-09-27T17:50:49.406Z,990.896
2023-09-27T17:52:49.674Z,990.840
2023-09-27T17:54:50.015Z,990.877
2023-09-27T17:56:50.237Z,990.847
2023-09-27T17:58:51.700Z,990.793
2023-09-27T18:00:50.130Z,990.810
2023-09-27T18:02:49.533Z,990.811
2023-09-27T18:04:49.906Z,990.771
2023-09-27T18:06:49.953Z,990.815
2023-09-27T18:08:50.044Z,990.781
2023-09-27T18:10:50.202Z,990.819
2023-09-27T18:12:50.220Z,990.819
2023-09-27T18:14:50.288Z,990.821
2023-09-27T18:16:49.556Z,990.869
2023-09-27T18:18:49.645Z,990.880
2023-09-27T18:20:50.888Z,990.850
2023-09-27T18:22:50.116Z,990.964
2023-09-27T18:24:50.140Z,990.978
2023-09-27T18:26:50.329Z,990.968
2023-09-27T18:28:49.540Z,990.960
2023-09-27T18:30:49.844Z,990.944
2023-09-27T18:32:50.054Z,990.909
2023-09-27T18:34:50.288Z,990.964
2023-09-27T18:36:49.438Z,990.941
2023-09-27T18:38:49.552Z,990.896
2023-09-27T18:40:49.781Z,990.881
2023-09-27T18:42:50.063Z,990.877
2023-09-27T18:44:49.372Z,990.957
2023-09-27T18:46:49.561Z,990.880
2023-09-27T18:48:49.890Z,990.950
2023-09-27T18:50:49.448Z,990.950
2023-09-27T18:52:49.695Z,990.950
2023-09-27T18:54:49.966Z,990.886
2023-09-27T18:56:50.129Z,990.945
2023-09-27T18:58:49.441Z,990.928
2023-09-27T19:00:49.635Z,990.923
2023-09-27T19:02:49.740Z,990.865
2023-09-27T19:04:49.974Z,990.933
2023-09-27T19:06:50.268Z,990.939
2023-09-27T19:08:49.451Z,990.906
2023-09-27T19:10:49.536Z,990.883
2023-09-27T19:12:49.613Z,990.899
2023-09-27T19:14:49.629Z,990.899
2023-09-27T19:16:50.048Z,990.934
2023-09-27T19:18:50.325Z,990.945
2023-09-27T19:20:49.415Z,990.942
2023-09-27T19:22:49.568Z,991.018
2023-09-27T19:24:49.648Z,990.989
2023-09-27T19:26:49.705Z,990.911
2023-09-27T19:28:49.817Z,990.941
2023-09-27T19:30:50.049Z,990.948
2023-09-27T19:32:50.124Z,991.013
2023-09-27T19:34:49.607Z,990.954
2023-09-27T19:36:49.589Z,990.954
2023-09-27T19:38:49.566Z,990.959
2023-09-27T19:40:49.676Z,990.947
2023-09-27T19:42:49.955Z,990.970
2023-09-27T19:44:50.250Z,990.990
2023-09-27T19:46:49.497Z,990.941
2023-09-27T19:48:49.751Z,990.888
2023-09-27T19:50:49.900Z,990.886
2023-09-27T19:52:50.015Z,990.984
2023-09-27T19:54:50.125Z,990.944
2023-09-27T19:56:50.204Z,991.034
2023-09-27T19:58:50.356Z,991.025
2023-09-27T20:00:49.639Z,991.006
2023-09-27T20:02:49.835Z,991.041
2023-09-27T20:04:50.151Z,991.066
2023-09-27T20:06:49.423Z,991.072
2023-09-27T20:08:49.538Z,991.060
2023-09-27T20:10:49.691Z,991.106
2023-09-27T20:12:49.825Z,991.115
2023-09-27T20:14:49.840Z,991.122
2023-09-27T20:16:49.919Z,991.091
2023-09-27T20:18:50.296Z,991.078
2023-09-27T20:20:50.298Z,991.036
2023-09-27T20:22:50.359Z,991.117
2023-09-27T20:24:49.534Z,991.121
2023-09-27T20:26:49.790Z,991.100
2023-09-27T20:28:50.100Z,991.141
2023-09-27T20:30:50.236Z,991.056
2023-09-27T20:32:49.350Z,991.095
2023-09-27T20:34:49.669Z,991.187
2023-09-27T20:36:49.816Z,991.197
2023-09-27T20:38:49.910Z,991.091
2023-09-27T20:40:50.088Z,991.235
2023-09-27T20:42:50.359Z,991.125
2023-09-27T20:44:49.662Z,991.178
2023-09-27T20:46:49.850Z,991.201
2023-09-27T20:48:49.948Z,991.210
2023-09-27T20:50:50.197Z,991.152
2023-09-27T20:52:50.300Z,991.149
2023-09-27T20:54:50.310Z,991.073
2023-09-27T20:56:49.409Z,991.075
2023-09-27T20:58:49.680Z,991.111
2023-09-27T21:00:49.820Z,991.073
2023-09-27T21:02:49.969Z,991.154
2023-09-27T21:04:50.112Z,991.060
2023-09-27T21:06:50.268Z,991.117
2023-09-27T21:08:49.351Z,991.111
2023-09-27T21:10:50.386Z,991.058
2023-09-27T21:12:49.712Z,991.015
2023-09-27T21:14:49.831Z,991.025
2023-09-27T21:16:50.000Z,991.031
2023-09-27T21:18:50.194Z,990.969
2023-09-27T21:20:50.290Z,990.959
2023-09-27T21:22:49.537Z,991.057
2023-09-27T21:24:49.670Z,990.998
2023-09-27T21:26:49.763Z,990.933
2023-09-27T21:28:49.901Z,990.892
2023-09-27T21:30:50.073Z,990.912
2023-09-27T21:32:49.432Z,990.980
2023-09-27T21:34:49.669Z,990.949
2023-09-27T21:36:49.956Z,990.973
2023-09-27T21:38:50.162Z,990.896
2023-09-27T21:40:50.329Z,990.956
2023-09-27T21:42:49.450Z,990.934
2023-09-27T21:44:49.456Z,990.913
2023-09-27T21:46:49.758Z,991.063
2023-09-27T21:48:49.907Z,990.971
2023-09-27T21:50:50.157Z,990.977
2023-09-27T21:52:50.101Z,990.965
2023-09-27T21:54:50.105Z,990.973
2023-09-27T21:56:50.244Z,990.951
2023-09-27T21:58:49.365Z,990.863
2023-09-27T22:00:49.592Z,990.834
2023-09-27T22:02:49.677Z,990.804
2023-09-27T22:04:49.940Z,990.746
2023-09-27T22:06:50.098Z,990.777
2023-09-27T22:08:50.681Z,990.800
2023-09-27T22:10:49.896Z,990.841
2023-09-27T22:12:50.220Z,990.784
2023-09-27T22:14:49.470Z,990.732
2023-09-27T22:16:49.567Z,990.771
2023-09-27T22:18:49.991Z,990.746
2023-09-27T22:20:50.308Z,990.736
2023-09-27T22:22:49.548Z,990.784
2023-09-27T22:24:49.578Z,990.755
2023-09-27T22:26:49.808Z,990.734
2023-09-27T22:28:50.127Z,990.682
2023-09-27T22:30:49.554Z,990.763
2023-09-27T22:32:49.863Z,990.745
2023-09-27T22:34:49.939Z,990.765
2023-09-27T22:36:50.079Z,990.650
2023-09-27T22:38:50.262Z,990.749
2023-09-27T22:40:49.502Z,990.749
2023-09-27T22:42:49.566Z,990.696
2023-09-27T22:44:49.637Z,990.687
2023-09-27T22:46:49.949Z,990.652
2023-09-27T22:48:50.302Z,990.653
2023-09-27T22:50:49.746Z,990.635
2023-09-27T22:52:50.085Z,990.635
2023-09-27T22:54:50.124Z,990.656
2023-09-27T22:56:50.257Z,990.646
2023-09-27T22:58:50.357Z,990.692
2023-09-27T23:00:49.471Z,990.765
2023-09-27T23:02:49.587Z,990.667
2023-09-27T23:04:49.754Z,990.694
2023-09-27T23:06:50.024Z,990.694
2023-09-27T23:08:50.123Z,990.603
2023-09-27T23:10:50.217Z,990.659
2023-09-27T23:12:49.404Z,990.659
2023-09-27T23:14:49.509Z,990.657
2023-09-27T23:16:49.714Z,990.660
2023-09-27T23:18:49.931Z,990.620
2023-09-27T23:20:49.996Z,990.722
2023-09-27T23:22:50.185Z,990.697
2023-09-27T23:24:49.392Z,990.748
2023-09-27T23:26:49.593Z,990.817
2023-09-27T23:28:49.789Z,990.780
2023-09-27T23:30:50.009Z,990.711
2023-09-27T23:32:50.371Z,990.711
2023-09-27T23:34:49.836Z,990.698
2023-09-27T23:36:49.927Z,990.612
2023-09-27T23:38:50.051Z,990.642
2023-09-27T23:40:50.158Z,990.667
2023-09-27T23:42:50.270Z,990.701
2023-09-27T23:44:49.501Z,990.600
2023-09-27T23:46:49.739Z,990.635
2023-09-27T23:48:50.001Z,990.672
2023-09-27T23:50:50.202Z,990.745
2023-09-27T23:52:49.634Z,990.703
2023-09-27T23:54:49.842Z,990.675
2023-09-27T23:56:49.893Z,990.760
2023-09-27T23:58:49.861Z,990.767
